Time;durP1;ratioP1;P1;durP2;ratioP2;P2;SDS_P1;SDS_P2;PMS_P1;PMS_P2;Temp;Humidity;BMP_temperature;BMP_pressure;BME280_temperature;BME280_humidity;BME280_pressure;Samples;Min_cycle;Max_cycle;Signal;HPM_P1;HPM_P2
2022/09/20 00:00:13;;;;;;;3.07;1.07;;;;;;;19.79;50.82;102197.38;5012318;28;20034;-72
2022/09/20 00:02:38;;;;;;;4.78;1.38;;;;;;;19.81;51.03;102195.50;5012254;28;20267;-74
2022/09/20 00:05:05;;;;;;;4.82;1.30;;;;;;;19.69;50.87;102178.59;5012127;28;20037;-72
2022/09/20 00:07:31;;;;;;;3.38;1.20;;;;;;;19.72;51.09;102192.47;5011905;28;20069;-74
2022/09/20 00:09:56;;;;;;;4.25;1.27;;;;;;;19.76;50.97;102201.09;5011603;28;20069;-73
2022/09/20 00:12:22;;;;;;;3.20;1.17;;;;;;;19.77;51.11;102202.75;5011078;28;20081;-73
2022/09/20 00:14:47;;;;;;;3.67;1.20;;;;;;;19.78;51.07;102203.63;5011969;28;20036;-73
2022/09/20 00:17:12;;;;;;;2.70;1.07;;;;;;;19.71;51.16;102192.56;5010170;28;20338;-74
2022/09/20 00:19:38;;;;;;;2.63;1.00;;;;;;;19.69;50.67;102190.03;5010843;28;20278;-73
2022/09/20 00:22:03;;;;;;;3.20;1.17;;;;;;;19.68;51.08;102183.06;5010312;28;20267;-73
2022/09/20 00:24:28;;;;;;;3.42;1.15;;;;;;;19.68;50.70;102183.06;5011107;28;20042;-74
2022/09/20 00:26:54;;;;;;;3.60;1.30;;;;;;;19.75;50.97;102194.91;5009682;28;20556;-74
2022/09/20 00:29:19;;;;;;;2.53;1.10;;;;;;;19.68;50.83;102177.75;5011359;28;20044;-72
2022/09/20 00:31:45;;;;;;;3.95;1.38;;;;;;;19.68;51.02;102185.69;5011330;28;20431;-73
2022/09/20 00:36:56;;;;;;;3.20;1.30;;;;;;;19.70;50.60;102188.22;5009982;28;20377;-72
2022/09/20 00:39:21;;;;;;;3.53;1.30;;;;;;;19.65;51.08;102185.06;5011670;28;20029;-73
2022/09/20 00:41:46;;;;;;;3.30;1.23;;;;;;;19.69;50.98;102194.47;5011360;28;20079;-73
2022/09/20 00:44:44;;;;;;;3.80;1.20;;;;;;;19.73;50.83;102206.56;5012563;28;20045;-72
2022/09/20 00:47:43;;;;;;;3.92;1.10;;;;;;;19.71;50.72;102203.13;5011532;28;20063;-74
2022/09/20 00:50:17;;;;;;;2.38;0.90;;;;;;;19.70;50.82;102201.47;5011321;28;20056;-74
2022/09/20 00:52:45;;;;;;;;;;;;;;;19.70;50.94;102197.00;5012172;28;20351;-74
2022/09/20 00:55:11;;;;;;;2.85;1.23;;;;;;;19.65;50.67;102185.91;5011447;28;19917;-73
2022/09/20 00:57:37;;;;;;;4.57;1.30;;;;;;;19.64;50.88;102189.47;5011593;28;20109;-73
2022/09/20 01:00:08;;;;;;;3.65;1.25;;;;;;;19.61;50.96;102188.84;5010805;28;20465;-73
2022/09/20 01:02:38;;;;;;;2.72;1.15;;;;;;;19.62;50.74;102194.03;5011199;28;20040;-73
2022/09/20 01:05:04;;;;;;;3.22;1.20;;;;;;;19.61;50.89;102194.13;5010850;28;20037;-72
2022/09/20 01:07:30;;;;;;;3.67;1.05;;;;;;;19.61;50.74;102191.50;5010910;28;20030;-74
2022/09/20 01:09:55;;;;;;;3.20;1.00;;;;;;;19.52;50.74;102177.94;5011518;28;20037;-74
2022/09/20 01:12:24;;;;;;;2.28;1.00;;;;;;;19.55;50.64;102187.44;5011020;28;20037;-74
2022/09/20 01:14:51;;;;;;;2.70;1.10;;;;;;;19.52;50.92;102183.22;5011426;28;20034;-73
2022/09/20 01:17:18;;;;;;;2.75;1.17;;;;;;;19.61;50.61;102197.63;5011684;28;20192;-73
2022/09/20 01:20:11;;;;;;;2.35;1.10;;;;;;;19.57;50.68;102191.69;5010909;28;20060;-73
2022/09/20 01:22:49;;;;;;;2.53;1.00;;;;;;;19.57;50.68;102193.50;5015154;28;20025;-73
2022/09/20 01:25:27;;;;;;;3.45;1.30;;;;;;;19.50;50.75;102186.91;5015548;28;20091;-73
2022/09/20 01:27:53;;;;;;;4.28;1.38;;;;;;;19.46;50.70;102177.50;5014078;28;20057;-75
2022/09/20 01:30:22;;;;;;;3.10;1.23;;;;;;;19.53;50.63;102194.63;5014588;28;20051;-74
2022/09/20 01:33:06;;;;;;;2.38;1.00;;;;;;;19.52;50.74;102188.50;5014817;28;20029;-73
2022/09/20 01:35:34;;;;;;;3.95;1.25;;;;;;;19.50;51.01;102190.41;5014783;28;20557;-73
2022/09/20 01:38:33;;;;;;;2.90;1.30;;;;;;;19.49;50.98;102191.34;5015205;28;20038;-74
2022/09/20 01:41:05;;;;;;;3.30;1.20;;;;;;;19.46;50.98;102188.06;4996963;28;20132;-74
2022/09/20 01:43:40;;;;;;;3.38;1.15;;;;;;;19.47;51.19;102187.97;5014546;28;20087;-73
2022/09/20 01:46:30;;;;;;;3.17;1.23;;;;;;;19.45;50.96;102186.38;5012822;28;20092;-73
2022/09/20 01:49:53;;;;;;;2.78;1.00;;;;;;;19.49;50.74;102198.44;5006690;28;20037;-73
2022/09/20 01:52:54;;;;;;;4.60;1.30;;;;;;;19.47;50.82;102198.53;5014741;28;20061;-74
2022/09/20 01:55:53;;;;;;;2.95;1.30;;;;;;;19.49;50.84;102199.28;5014552;28;20060;-74
2022/09/20 01:58:25;;;;;;;2.65;1.02;;;;;;;19.49;50.89;102199.28;5014105;28;20029;-73
2022/09/20 02:01:07;;;;;;;4.13;1.25;;;;;;;19.49;50.88;102194.00;5013981;28;20041;-74
2022/09/20 02:04:08;;;;;;;2.70;1.33;;;;;;;19.44;50.60;102190.81;5014368;28;20029;-74
2022/09/20 02:06:48;;;;;;;2.53;1.10;;;;;;;19.48;50.58;102189.66;5014424;28;20376;-73
2022/09/20 02:09:42;;;;;;;2.75;0.88;;;;;;;19.48;50.92;102191.47;5014166;28;20037;-73
2022/09/20 02:12:27;;;;;;;3.38;1.10;;;;;;;19.44;50.78;102184.66;5013874;28;20125;-73
2022/09/20 02:15:31;;;;;;;3.13;1.05;;;;;;;19.39;50.88;102179.66;5014378;28;20036;-74
2022/09/20 02:18:16;;;;;;;4.03;0.90;;;;;;;19.46;51.10;102193.38;5014392;28;20034;-73
2022/09/20 02:20:54;;;;;;;3.55;1.27;;;;;;;19.34;50.99;102182.66;5014563;28;20267;-72
2022/09/20 02:23:28;;;;;;;2.47;1.00;;;;;;;19.43;51.14;102202.31;5014560;28;20037;-73
2022/09/20 02:26:02;;;;;;;4.20;1.67;;;;;;;19.44;50.94;102197.88;5014893;28;20034;-73
2022/09/20 02:28:42;;;;;;;2.65;1.02;;;;;;;19.41;50.97;102193.66;5014240;28;20152;-72
2022/09/20 02:31:21;;;;;;;3.40;1.27;;;;;;;19.31;50.74;102174.03;5014002;28;20041;-74
2022/09/20 02:34:24;;;;;;;4.15;1.25;;;;;;;19.40;50.83;102191.94;5013012;28;20369;-73
2022/09/20 02:37:10;;;;;;;3.28;1.17;;;;;;;19.39;50.83;102188.47;5013757;28;20041;-74
2022/09/20 02:39:56;;;;;;;4.43;1.20;;;;;;;19.40;51.04;102184.84;5014282;28;20030;-74
2022/09/20 02:42:45;;;;;;;3.10;1.20;;;;;;;19.39;50.87;102191.13;5013525;28;20140;-74
2022/09/20 02:45:22;;;;;;;2.88;1.00;;;;;;;19.35;50.80;102191.41;5013669;28;20045;-74
2022/09/20 02:47:48;;;;;;;3.95;1.20;;;;;;;19.30;51.08;102185.59;5013094;28;20041;-74
2022/09/20 02:50:25;;;;;;;3.05;1.00;;;;;;;19.35;51.04;102192.25;5012956;28;20022;-73
2022/09/20 02:53:10;;;;;;;5.55;1.20;;;;;;;19.37;51.05;102197.44;5013415;28;20125;-74
2022/09/20 02:55:57;;;;;;;2.72;1.05;;;;;;;19.37;51.11;102195.63;5012965;28;20036;-75
2022/09/20 02:58:48;;;;;;;3.35;0.90;;;;;;;19.37;50.92;102194.78;5013471;28;20041;-73
2022/09/20 03:01:23;;;;;;;3.70;1.13;;;;;;;19.37;50.98;102194.78;5012710;28;20478;-74
2022/09/20 03:03:57;;;;;;;2.50;1.00;;;;;;;19.38;51.03;102189.41;5013335;28;20033;-74
2022/09/20 03:06:41;;;;;;;;;;;;;;;19.38;50.89;102193.84;5013552;28;20049;-73
2022/09/20 03:09:16;;;;;;;2.83;1.10;;;;;;;19.37;51.05;102178.94;5013667;28;19952;-74
2022/09/20 03:12:17;;;;;;;3.92;1.40;;;;;;;19.30;51.03;102169.72;5012743;28;20029;-73
2022/09/20 03:15:04;;;;;;;2.88;1.08;;;;;;;19.30;51.16;102173.22;5013332;28;20042;-74
2022/09/20 03:17:43;;;;;;;4.03;1.30;;;;;;;19.27;51.04;102173.41;5012716;28;20112;-74
2022/09/20 03:20:21;;;;;;;2.97;1.20;;;;;;;19.35;51.06;102186.13;5012888;28;20055;-72
2022/09/20 03:23:17;;;;;;;3.03;1.00;;;;;;;19.30;51.18;102189.06;5012521;28;20061;-74
2022/09/20 03:25:51;;;;;;;2.00;1.00;;;;;;;19.33;51.19;102191.50;5012902;28;20033;-73
2022/09/20 03:28:47;;;;;;;3.63;1.10;;;;;;;19.32;50.95;102192.44;5012745;28;20099;-74
2022/09/20 03:31:15;;;;;;;3.65;1.20;;;;;;;19.32;51.23;102189.81;5012929;28;20088;-73
2022/09/20 03:34:19;;;;;;;2.38;1.00;;;;;;;19.31;51.10;102190.78;5013178;28;20056;-73
2022/09/20 03:37:10;;;;;;;2.55;1.20;;;;;;;19.25;50.85;102179.72;5004447;28;20801;-73
2022/09/20 03:40:03;;;;;;;3.85;1.17;;;;;;;19.33;50.85;102196.78;5013086;28;20040;-72
2022/09/20 03:42:29;;;;;;;1.90;0.98;;;;;;;19.33;51.11;102191.50;5012142;28;20040;-74
2022/09/20 03:45:18;;;;;;;2.92;0.93;;;;;;;19.36;50.91;102193.13;5012800;28;20038;-73
2022/09/20 03:48:02;;;;;;;5.00;1.25;;;;;;;19.34;50.93;102190.56;5012362;28;20113;-74
2022/09/20 03:50:37;;;;;;;4.82;1.30;;;;;;;19.28;50.83;102179.53;5012242;28;20056;-73
2022/09/20 03:53:45;;;;;;;2.45;1.00;;;;;;;19.31;50.92;102190.78;5013063;28;20038;-74
2022/09/20 03:56:19;;;;;;;3.50;1.17;;;;;;;19.30;50.86;102189.06;5001575;28;20559;-74
2022/09/20 03:58:48;;;;;;;3.28;1.02;;;;;;;19.30;51.11;102190.88;5012629;28;20041;-74
2022/09/20 04:01:45;;;;;;;4.68;1.25;;;;;;;19.29;51.01;102191.81;5011977;28;20033;-75
2022/09/20 04:04:31;;;;;;;5.25;1.23;;;;;;;19.12;51.37;102169.97;4983978;28;20085;-73
2022/09/20 04:07:16;;;;;;;2.53;1.00;;;;;;;19.25;51.25;102182.38;5012805;28;20048;-73
2022/09/20 04:10:02;;;;;;;3.42;1.10;;;;;;;19.28;51.35;102193.63;5012207;28;20029;-74
2022/09/20 04:12:57;;;;;;;2.45;0.90;;;;;;;19.27;51.24;102202.47;4979054;28;20080;-73
2022/09/20 04:15:41;;;;;;;3.83;1.00;;;;;;;19.28;51.19;102196.25;5012027;28;20084;-74
2022/09/20 04:18:14;;;;;;;3.05;1.23;;;;;;;19.29;51.13;102183.88;5011401;28;20049;-74
2022/09/20 04:20:46;;;;;;;3.35;1.10;;;;;;;19.23;51.33;102163.13;5012397;28;20037;-74
2022/09/20 04:23:34;;;;;;;3.90;1.08;;;;;;;19.28;51.28;102161.91;5012057;28;20040;-74
2022/09/20 04:26:02;;;;;;;2.67;0.93;;;;;;;19.25;51.31;102174.44;5012177;28;20045;-74
2022/09/20 04:28:42;;;;;;;2.45;0.98;;;;;;;19.24;51.21;102172.75;5012021;28;20053;-73
2022/09/20 04:31:28;;;;;;;2.45;1.05;;;;;;;19.25;51.33;102183.25;5010962;28;20040;-75
2022/09/20 04:33:56;;;;;;;2.17;0.90;;;;;;;19.18;51.19;102171.34;5011258;28;20480;-73
2022/09/20 04:36:54;;;;;;;4.43;1.02;;;;;;;19.24;51.30;102175.41;5011614;28;20034;-74
2022/09/20 04:39:45;;;;;;;2.60;1.10;;;;;;;19.26;51.26;102176.16;5011289;28;20025;-73
2022/09/20 04:42:22;;;;;;;3.10;1.00;;;;;;;19.26;51.19;102181.44;5011459;28;20489;-74
2022/09/20 04:45:09;;;;;;;2.47;1.08;;;;;;;19.26;51.27;102176.16;5011595;28;20037;-74
2022/09/20 04:48:08;;;;;;;4.05;1.20;;;;;;;19.25;51.12;102182.38;5011213;28;20029;-73
2022/09/20 04:50:54;;;;;;;2.63;1.00;;;;;;;19.18;51.12;102174.88;5011792;28;20033;-74
2022/09/20 04:53:27;;;;;;;2.55;1.00;;;;;;;19.17;51.43;102181.09;5011840;28;20124;-73
2022/09/20 04:56:19;;;;;;;4.22;1.20;;;;;;;19.24;51.32;102199.19;5010352;28;20033;-72
2022/09/20 04:58:48;;;;;;;3.25;1.10;;;;;;;19.24;51.40;102202.69;5011453;28;20037;-74
2022/09/20 05:01:16;;;;;;;3.45;1.20;;;;;;;19.24;51.34;102199.19;5010848;28;20041;-74
2022/09/20 05:04:00;;;;;;;3.03;1.15;;;;;;;19.23;51.22;102200.97;5011220;28;20029;-74
2022/09/20 05:07:03;;;;;;;4.15;1.20;;;;;;;19.24;51.27;102199.19;5010857;28;20516;-73
2022/09/20 05:09:42;;;;;;;2.95;1.08;;;;;;;19.23;51.17;102197.50;5010572;28;20041;-74
2022/09/20 05:12:34;;;;;;;3.05;1.10;;;;;;;19.23;51.12;102195.69;5011339;28;20548;-73
2022/09/20 05:15:10;;;;;;;3.97;1.40;;;;;;;19.24;51.18;102201.84;5011444;28;20026;-73
2022/09/20 05:18:13;;;;;;;2.25;0.90;;;;;;;19.23;51.29;102206.25;5011695;28;20040;-73
2022/09/20 05:21:11;;;;;;;3.22;1.13;;;;;;;19.23;51.20;102206.25;4949735;28;20134;-74
2022/09/20 05:24:17;;;;;;;3.50;1.08;;;;;;;19.17;51.11;102204.88;5008631;28;20073;-74
2022/09/20 05:27:21;;;;;;;3.08;1.10;;;;;;;19.14;51.19;102198.94;5011450;28;20103;-74
2022/09/20 05:30:10;;;;;;;4.68;1.20;;;;;;;19.16;51.19;102210.25;5010785;28;20036;-74
2022/09/20 05:32:44;;;;;;;3.92;1.30;;;;;;;19.22;51.12;102220.44;5010325;28;20041;-74
2022/09/20 05:35:28;;;;;;;2.33;1.02;;;;;;;19.19;51.44;102213.53;5011278;28;20048;-74
2022/09/20 05:38:04;;;;;;;3.03;1.15;;;;;;;19.21;51.34;102221.38;5010727;28;20045;-75
2022/09/20 05:40:39;;;;;;;2.78;1.20;;;;;;;19.13;51.23;102213.94;5007876;28;20517;-73
2022/09/20 05:43:11;;;;;;;2.22;0.93;;;;;;;19.18;51.21;102229.50;5010121;28;20861;-75
2022/09/20 05:45:55;;;;;;;3.38;1.10;;;;;;;19.17;51.33;102226.00;5008606;28;20124;-77
2022/09/20 05:48:20;;;;;;;2.83;1.08;;;;;;;19.21;51.48;102234.59;5010302;28;20348;-72
2022/09/20 05:51:00;;;;;;;3.13;1.10;;;;;;;19.21;51.31;102230.13;5010891;28;20373;-72
2022/09/20 05:54:04;;;;;;;2.28;0.95;;;;;;;19.25;51.34;102237.88;5009989;28;20485;-73
2022/09/20 05:56:44;;;;;;;2.10;0.90;;;;;;;19.20;51.29;102219.66;5009082;28;20478;-70
2022/09/20 05:59:31;;;;;;;3.47;1.10;;;;;;;19.28;51.58;102242.97;5011087;28;20026;-68
2022/09/20 06:02:14;;;;;;;3.75;1.10;;;;;;;19.28;51.71;102241.19;5010932;28;20084;-71
2022/09/20 06:04:56;;;;;;;2.00;1.00;;;;;;;19.29;51.43;102244.66;5010307;28;20037;-71
2022/09/20 06:07:41;;;;;;;4.15;1.10;;;;;;;19.29;52.00;102248.16;5013634;28;20382;-71
2022/09/20 06:10:06;;;;;;;2.40;0.82;;;;;;;19.32;51.85;102252.41;5014767;28;20048;-72
2022/09/20 06:12:51;;;;;;;3.10;1.07;;;;;;;19.35;51.50;102257.50;5014710;28;20037;-71
2022/09/20 06:15:51;;;;;;;3.28;0.90;;;;;;;19.30;51.84;102251.66;5014175;28;20029;-72
2022/09/20 06:18:25;;;;;;;3.05;1.15;;;;;;;19.32;51.91;102257.69;5014246;28;20530;-73
2022/09/20 06:20:58;;;;;;;2.13;1.00;;;;;;;19.29;51.85;102245.50;5014002;28;20088;-71
2022/09/20 06:23:23;;;;;;;3.58;1.08;;;;;;;19.35;51.68;102254.84;5013732;28;20030;-70
2022/09/20 06:25:56;;;;;;;2.35;0.88;;;;;;;19.38;51.51;102259.94;5013925;28;20056;-71
2022/09/20 06:28:32;;;;;;;1.92;0.80;;;;;;;19.32;51.63;102249.75;5012823;28;20115;-71
2022/09/20 06:30:57;;;;;;;2.63;0.90;;;;;;;19.34;51.69;102253.16;5014333;28;20026;-69
2022/09/20 06:33:27;;;;;;;2.80;1.00;;;;;;;19.38;51.72;102258.13;5013615;28;20026;-71
2022/09/20 06:41:38;;;;;;;2.88;0.85;;;;;;;19.46;51.90;102264.75;5017317;28;19971;-70
2022/09/20 06:44:05;;;;;;;2.67;0.90;;;;;;;19.41;51.83;102257.09;5014079;28;20056;-71
2022/09/20 06:46:33;;;;;;;3.33;1.10;;;;;;;19.48;52.00;102263.69;5013712;28;20028;-71
2022/09/20 06:48:58;;;;;;;3.80;0.90;;;;;;;19.36;51.95;102240.69;5013736;28;20037;-70
2022/09/20 06:51:26;;;;;;;1.80;0.77;;;;;;;19.36;52.00;102238.06;5013677;28;20038;-71
2022/09/20 06:53:54;;;;;;;4.20;1.30;;;;;;;19.53;52.02;102266.88;5013066;28;20108;-70
2022/09/20 06:56:28;;;;;;;2.67;0.98;;;;;;;19.52;52.06;102259.06;5011684;28;20033;-70
2022/09/20 06:58:54;;;;;;;1.83;0.90;;;;;;;19.57;52.25;102271.03;5014771;28;20040;-69
2022/09/20 07:01:20;;;;;;;3.60;1.00;;;;;;;19.51;52.26;102257.34;5013701;28;20041;-70
2022/09/20 07:03:45;;;;;;;2.53;0.80;;;;;;;19.36;52.39;102235.41;5013848;28;20034;-69
2022/09/20 07:06:10;;;;;;;3.42;0.98;;;;;;;19.58;52.08;102270.09;5018808;28;20038;-68
2022/09/20 07:08:36;;;;;;;3.72;0.80;;;;;;;19.54;51.85;102262.44;5013405;28;20037;-71
2022/09/20 07:11:08;;;;;;;2.45;0.80;;;;;;;19.56;52.32;102261.38;5013078;28;20040;-70
2022/09/20 07:13:34;;;;;;;2.55;0.88;;;;;;;19.56;52.04;102258.75;5012796;28;20097;-73
2022/09/20 07:16:03;;;;;;;1.25;0.70;;;;;;;19.58;52.00;102258.63;5013590;28;20488;-71
2022/09/20 07:18:30;;;;;;;2.47;0.90;;;;;;;19.59;52.01;102257.69;5010475;28;20077;-71
2022/09/20 07:20:57;;;;;;;2.17;1.00;;;;;;;19.65;51.84;102264.41;5018120;28;20067;-72
2022/09/20 07:23:24;;;;;;;2.80;0.90;;;;;;;19.64;51.67;102260.03;5011495;28;20593;-72
2022/09/20 07:25:50;;;;;;;3.45;1.08;;;;;;;19.68;51.85;102269.50;5012641;28;20474;-71
2022/09/20 07:28:16;;;;;;;5.82;1.10;;;;;;;19.63;51.97;102260.97;5010596;28;20052;-79
2022/09/20 07:30:41;;;;;;;3.58;1.00;;;;;;;19.60;52.22;102264.69;5009857;28;20033;-74
2022/09/20 07:33:09;;;;;;;2.35;0.90;;;;;;;19.52;52.21;102254.63;5011232;28;20025;-80
2022/09/20 07:35:34;;;;;;;2.35;0.98;;;;;;;19.47;52.07;102250.56;5011999;28;20030;-76
2022/09/20 07:38:00;;;;;;;5.22;1.17;;;;;;;19.62;51.92;102265.44;5012558;28;20030;-76
2022/09/20 07:40:26;;;;;;;2.40;0.90;;;;;;;19.63;52.15;102261.84;5011469;28;20034;-76
2022/09/20 07:42:51;;;;;;;2.20;1.05;;;;;;;19.72;51.71;102265.69;5012263;28;20030;-76
2022/09/20 07:45:17;;;;;;;3.10;1.00;;;;;;;19.83;51.38;102276.44;5011030;28;20047;-76
2022/09/20 07:47:43;;;;;;;4.30;1.10;;;;;;;19.80;51.45;102257.28;5011983;28;20611;-78
2022/09/20 07:50:10;;;;;;;2.65;0.90;;;;;;;19.90;51.22;102271.56;5011498;28;20386;-77
2022/09/20 07:52:36;;;;;;;2.25;0.90;;;;;;;19.99;51.04;102280.72;5011416;28;20090;-78
2022/09/20 07:55:01;;;;;;;3.75;1.23;;;;;;;19.98;50.95;102287.81;5011919;28;20141;-77
2022/09/20 07:57:26;;;;;;;6.55;1.02;;;;;;;19.97;50.90;102287.91;5011193;28;20553;-80
2022/09/20 07:59:51;;;;;;;4.93;0.90;;;;;;;20.00;51.12;102293.00;5011553;28;20355;-79
2022/09/20 08:02:17;;;;;;;2.63;0.80;;;;;;;19.93;51.07;102289.88;5010743;28;20040;-77
2022/09/20 08:04:43;;;;;;;3.22;1.15;;;;;;;19.90;51.00;102282.16;5017471;28;20033;-78
2022/09/20 08:07:08;;;;;;;3.85;0.90;;;;;;;19.94;51.16;102297.72;5010753;28;20025;-77
2022/09/20 08:09:33;;;;;;;6.20;0.95;;;;;;;20.01;51.11;102297.31;5011442;28;20035;-80
2022/09/20 08:11:58;;;;;;;8.40;1.00;;;;;;;19.98;50.97;102295.75;5010603;28;20080;-74
2022/09/20 08:14:24;;;;;;;3.78;0.82;;;;;;;20.03;50.81;102298.09;5011339;28;20018;-76
2022/09/20 08:16:50;;;;;;;5.55;0.90;;;;;;;20.07;50.96;102307.50;5010394;28;20112;-75
2022/09/20 08:19:21;;;;;;;4.05;1.10;;;;;;;20.11;50.87;102306.38;5011365;28;20524;-74
2022/09/20 08:21:47;;;;;;;2.75;1.00;;;;;;;20.07;50.91;102296.91;5009527;28;20049;-78
2022/09/20 08:24:13;;;;;;;3.83;1.30;;;;;;;20.13;50.68;102301.81;5010748;28;20041;-81
2022/09/20 08:26:39;;;;;;;5.28;1.10;;;;;;;20.00;50.68;102279.78;5011333;28;20050;-80
2022/09/20 08:29:04;;;;;;;3.60;0.90;;;;;;;20.16;50.50;102308.72;5010299;28;20029;-78
2022/09/20 08:31:33;;;;;;;5.05;1.13;;;;;;;20.09;50.22;102303.81;5010578;28;20061;-76
2022/09/20 08:34:01;;;;;;;3.47;0.95;;;;;;;20.10;50.46;102309.94;5010982;28;20422;-75
2022/09/20 08:36:27;;;;;;;3.38;0.80;;;;;;;20.05;50.72;102306.78;5011338;28;20026;-78
2022/09/20 08:38:52;;;;;;;5.88;0.88;;;;;;;20.05;50.50;102304.13;5011349;28;20466;-75
2022/09/20 08:41:31;;;;;;;4.00;0.95;;;;;;;20.06;50.70;102304.03;5010882;28;20487;-76
2022/09/20 08:44:14;;;;;;;5.78;1.00;;;;;;;20.04;50.57;102316.47;5010989;28;20037;-76
2022/09/20 08:46:44;;;;;;;3.97;0.97;;;;;;;19.99;50.56;102302.72;5010933;28;20067;-75
2022/09/20 08:49:19;;;;;;;4.38;1.00;;;;;;;20.04;50.74;102313.84;5011514;28;20033;-76
2022/09/20 08:51:49;;;;;;;3.45;0.85;;;;;;;19.94;51.19;102296.88;5011165;28;20021;-76
2022/09/20 08:54:15;;;;;;;5.10;0.98;;;;;;;20.05;51.41;102312.91;5011210;28;20022;-81
2022/09/20 08:56:47;;;;;;;3.80;1.10;;;;;;;20.10;50.85;102312.59;5010940;28;20040;-81
2022/09/20 08:59:17;;;;;;;4.82;0.80;;;;;;;20.13;50.82;102314.19;5011138;28;20068;-78
2022/09/20 09:01:43;;;;;;;6.50;0.90;;;;;;;20.22;50.92;102317.06;5010223;28;20048;-77
2022/09/20 09:04:16;;;;;;;5.70;1.20;;;;;;;20.24;50.42;102316.97;5010958;28;20021;-76
2022/09/20 09:06:43;;;;;;;2.45;0.90;;;;;;;20.36;50.26;102323.22;5010986;28;20048;-76
2022/09/20 09:09:24;;;;;;;3.42;0.82;;;;;;;20.28;50.09;102308.72;5010490;28;20107;-78
2022/09/20 09:11:52;;;;;;;3.05;0.90;;;;;;;20.39;50.02;102318.56;5011364;28;20060;-79
2022/09/20 09:14:47;;;;;;;3.50;1.00;;;;;;;20.33;50.17;102311.06;5010592;28;20069;-79
2022/09/20 09:17:17;;;;;;;2.08;0.80;;;;;;;20.42;50.22;102320.16;5010331;28;20041;-77
2022/09/20 09:19:45;;;;;;;6.43;1.00;;;;;;;20.42;49.94;102328.94;5011230;28;20076;-78
2022/09/20 09:22:21;;;;;;;6.30;0.75;;;;;;;20.41;49.99;102318.47;5009914;28;20030;-77
2022/09/20 09:25:22;;;;;;;6.15;1.10;;;;;;;20.37;50.06;102312.53;5011092;28;20457;-75
2022/09/20 09:27:50;;;;;;;3.08;0.80;;;;;;;20.34;49.69;102314.56;5010261;28;20415;-77
2022/09/20 09:30:27;;;;;;;2.92;0.80;;;;;;;20.37;50.02;102325.78;5010465;28;20465;-78
2022/09/20 09:33:15;;;;;;;3.88;0.80;;;;;;;20.39;49.69;102317.72;5010337;28;20045;-78
2022/09/20 09:35:41;;;;;;;4.80;0.80;;;;;;;20.34;49.84;102306.59;5011498;28;20453;-79
2022/09/20 09:38:17;;;;;;;4.13;0.70;;;;;;;20.44;49.44;102313.81;5010211;28;20037;-79
2022/09/20 09:40:51;;;;;;;4.13;0.95;;;;;;;20.47;49.50;102312.75;5010927;28;20087;-77
2022/09/20 09:43:25;;;;;;;3.20;0.70;;;;;;;20.51;49.25;102318.72;5014633;28;20071;-78
2022/09/20 09:45:52;;;;;;;4.78;1.00;;;;;;;20.50;49.25;102311.72;5014693;28;20044;-76
2022/09/20 09:48:23;;;;;;;3.92;0.93;;;;;;;20.57;48.89;102323.56;5014459;28;20794;-81
2022/09/20 09:50:49;;;;;;;4.82;1.10;;;;;;;20.58;49.03;102325.25;5015626;28;20038;-80
2022/09/20 09:53:20;;;;;;;4.10;1.40;;;;;;;20.53;48.94;102314.97;5015544;28;20060;-79
2022/09/20 09:56:01;;;;;;;4.00;0.80;;;;;;;20.54;48.78;102305.25;5015334;28;20033;-77
2022/09/20 09:58:48;;;;;;;2.05;0.50;;;;;;;20.62;48.93;102332.91;5014188;28;20112;-77
2022/09/20 10:01:28;;;;;;;5.85;0.95;;;;;;;20.61;48.85;102325.91;5015265;28;20153;-76
2022/09/20 10:04:04;;;;;;;2.80;0.80;;;;;;;20.61;48.58;102328.53;5014430;28;20373;-78
2022/09/20 10:06:38;;;;;;;7.40;1.10;;;;;;;20.53;48.69;102319.44;5020694;28;20484;-77
2022/09/20 10:09:18;;;;;;;4.22;0.82;;;;;;;20.60;48.81;102329.53;5015002;28;20038;-74
2022/09/20 10:11:59;;;;;;;2.88;0.75;;;;;;;20.55;48.92;102326.31;5014061;28;20080;-74
2022/09/20 10:14:50;;;;;;;5.13;0.90;;;;;;;20.60;48.70;102332.16;5013762;28;20034;-73
2022/09/20 10:17:39;;;;;;;3.50;0.88;;;;;;;20.61;48.73;102335.66;5013143;28;20041;-79
2022/09/20 10:20:39;;;;;;;5.30;0.80;;;;;;;20.58;49.00;102330.56;5013244;28;20171;-74
2022/09/20 10:23:40;;;;;;;3.72;1.20;;;;;;;20.55;48.97;102321.00;4997607;28;20057;-77
2022/09/20 10:26:34;;;;;;;4.68;0.70;;;;;;;20.55;49.05;102328.13;5015101;28;20041;-78
2022/09/20 10:29:13;;;;;;;3.65;0.80;;;;;;;20.58;48.63;102336.69;5012295;28;20045;-80
2022/09/20 10:32:00;;;;;;;5.35;1.05;;;;;;;20.52;49.11;102333.63;5013710;28;20107;-81
2022/09/20 10:34:43;;;;;;;4.05;0.70;;;;;;;20.56;48.97;102332.47;5014005;28;20041;-83
2022/09/20 10:37:19;;;;;;;4.68;1.02;;;;;;;20.56;49.01;102328.03;5013424;28;20022;-84
2022/09/20 10:39:51;;;;;;;4.32;0.70;;;;;;;20.46;48.96;102305.78;5013023;28;20036;-82
2022/09/20 10:45:32;;;;;;;2.67;0.90;;;;;;;20.58;48.87;102319.97;5013718;28;20045;-78
2022/09/20 10:48:06;;;;;;;4.78;0.77;;;;;;;20.67;48.97;102335.25;5013012;28;21268;-77
2022/09/20 10:50:43;;;;;;;3.63;0.80;;;;;;;20.68;49.00;102334.31;5013632;28;20061;-78
2022/09/20 10:53:27;;;;;;;4.65;0.85;;;;;;;20.70;48.82;102340.34;5013747;28;20042;-79
2022/09/20 10:56:12;;;;;;;3.30;0.75;;;;;;;20.67;49.08;102327.31;5014321;28;20694;-75
2022/09/20 10:58:53;;;;;;;7.10;0.85;;;;;;;20.68;48.98;102330.81;5011755;28;20056;-69
2022/09/20 11:01:54;;;;;;;5.25;0.75;;;;;;;20.66;48.91;102320.31;5011855;28;20047;-71
2022/09/20 11:04:47;;;;;;;2.55;0.60;;;;;;;20.70;48.76;102335.06;5012061;28;20553;-70
2022/09/20 11:07:30;;;;;;;3.50;0.80;;;;;;;20.70;48.97;102336.88;5013181;28;20041;-74
2022/09/20 11:10:06;;;;;;;4.28;0.88;;;;;;;20.68;48.83;102342.28;5014133;28;20127;-72
2022/09/20 11:12:42;;;;;;;3.10;0.65;;;;;;;20.59;48.73;102332.28;5013598;28;20107;-69
2022/09/20 11:15:18;;;;;;;3.05;0.93;;;;;;;20.58;48.87;102330.56;5012173;28;20034;-72
2022/09/20 11:18:22;;;;;;;4.38;1.38;;;;;;;20.61;48.55;102340.94;5012002;28;20575;-72
2022/09/20 11:20:59;;;;;;;4.82;1.10;;;;;;;20.60;48.85;102339.25;5007009;28;20125;-73
2022/09/20 11:23:39;;;;;;;2.35;0.75;;;;;;;20.54;48.78;102342.34;5010819;28;20052;-75
2022/09/20 11:26:12;;;;;;;4.15;0.88;;;;;;;20.57;49.15;102344.75;5012359;28;20034;-72
2022/09/20 11:28:43;;;;;;;15.43;1.73;;;;;;;20.48;48.75;102320.59;5011735;28;20050;-72
2022/09/20 11:31:37;;;;;;;5.20;1.13;;;;;;;20.61;48.86;102344.44;5011587;28;20588;-73
2022/09/20 11:34:27;;;;;;;3.03;0.80;;;;;;;20.55;48.79;102330.78;5019562;28;20131;-72
2022/09/20 11:36:57;;;;;;;4.47;0.80;;;;;;;20.58;48.90;102343.81;5009409;28;20076;-72
2022/09/20 11:39:46;;;;;;;3.30;0.68;;;;;;;20.54;48.64;102340.53;5010306;28;20057;-73
2022/09/20 11:42:17;;;;;;;4.38;0.88;;;;;;;20.53;48.90;102341.47;5011649;28;20124;-75
2022/09/20 11:44:43;;;;;;;3.45;0.80;;;;;;;20.56;48.77;102351.03;5012689;28;20458;-73
2022/09/20 11:47:19;;;;;;;5.03;0.88;;;;;;;20.49;48.66;102350.59;5013212;28;20120;-73
2022/09/20 11:50:20;;;;;;;3.70;0.73;;;;;;;20.49;48.64;102347.94;5011535;28;20096;-73
2022/09/20 11:52:54;;;;;;;1.80;0.60;;;;;;;20.41;48.54;102350.22;5012816;28;20485;-71
2022/09/20 11:55:27;;;;;;;;;;;;;;;20.46;48.60;102366.69;5018119;28;20365;-75
2022/09/20 11:58:08;;;;;;;3.22;0.70;;;;;;;20.44;48.84;102357.97;5011986;28;20264;-77
2022/09/20 12:00:37;;;;;;;2.42;0.70;;;;;;;20.34;48.88;102348.97;5018095;28;20442;-79
2022/09/20 12:03:19;;;;;;;2.65;0.70;;;;;;;20.27;49.20;102354.66;5018832;28;20068;-78
2022/09/20 12:05:44;;;;;;;3.47;0.82;;;;;;;20.20;49.33;102352.53;5016832;28;20469;-78
2022/09/20 12:08:24;;;;;;;1.75;0.60;;;;;;;20.27;49.08;102359.97;5011741;28;20030;-80
2022/09/20 12:11:16;;;;;;;3.13;0.70;;;;;;;20.17;49.35;102340.38;5011803;28;20079;-80
2022/09/20 12:13:52;;;;;;;3.40;0.77;;;;;;;20.18;49.41;102349.97;5011068;28;21062;-80
2022/09/20 12:16:42;;;;;;;3.75;0.85;;;;;;;20.16;49.38;102353.69;5012633;28;20358;-81
2022/09/20 12:19:12;;;;;;;4.45;1.10;;;;;;;20.21;49.54;102355.06;5014431;28;20034;-80
2022/09/20 12:22:07;;;;;;;3.45;0.80;;;;;;;20.34;49.21;102356.91;5011307;28;20033;-77
2022/09/20 12:24:35;;;;;;;4.60;0.77;;;;;;;20.33;49.30;102356.06;5000734;28;20042;-76